Time;durP1;ratioP1;P1;durP2;ratioP2;P2;SDS_P1;SDS_P2;PMS_P1;PMS_P2;Temp;Humidity;BMP_temperature;BMP_pressure;BME280_temperature;BME280_humidity;BME280_pressure;Samples;Min_cycle;Max_cycle;Signal;HPM_P1;HPM_P2
2022/11/09 00:01:19;;;;;;;3.40;1.60;;;14.80;99.90;;;;;;5012863;28;20254;-91
2022/11/09 00:03:45;;;;;;;4.63;1.55;;;14.90;99.90;;;;;;5013351;28;20506;-92
2022/11/09 00:06:11;;;;;;;2.60;1.42;;;14.80;99.90;;;;;;5013603;28;20183;-92
2022/11/09 00:08:37;;;;;;;2.10;1.30;;;14.90;99.90;;;;;;5014354;28;20163;-92
2022/11/09 00:13:41;;;;;;;4.28;1.67;;;14.90;99.90;;;;;;5148284;23;20247;-83
2022/11/09 00:16:09;;;;;;;5.10;1.70;;;15.00;99.90;;;;;;5006816;28;20194;-83
2022/11/09 00:18:35;;;;;;;3.83;1.80;;;15.00;99.90;;;;;;5012653;28;20190;-83
2022/11/09 00:21:10;;;;;;;2.90;1.58;;;15.10;99.90;;;;;;5028172;28;20179;-84
2022/11/09 00:23:36;;;;;;;4.60;1.63;;;15.10;99.90;;;;;;5033428;28;20209;-86
2022/11/09 00:26:04;;;;;;;4.53;1.83;;;15.10;99.90;;;;;;5032287;28;20621;-82
2022/11/09 00:28:30;;;;;;;8.55;1.63;;;15.00;99.90;;;;;;5033718;28;20207;-84
2022/11/09 00:31:00;;;;;;;5.15;1.65;;;15.00;99.90;;;;;;5033625;28;20555;-84
2022/11/09 00:33:26;;;;;;;3.65;1.60;;;14.90;99.90;;;;;;5032395;28;20197;-85
2022/11/09 00:35:52;;;;;;;5.13;1.80;;;14.90;99.90;;;;;;5033568;28;20175;-84
2022/11/09 00:38:17;;;;;;;3.22;1.40;;;15.00;99.90;;;;;;5033396;28;20166;-86
2022/11/09 00:40:43;;;;;;;10.20;1.42;;;14.90;99.90;;;;;;5032129;28;20182;-83
2022/11/09 00:43:10;;;;;;;3.40;1.52;;;15.00;99.90;;;;;;5033387;28;20206;-84
2022/11/09 00:45:35;;;;;;;3.90;1.65;;;15.00;99.90;;;;;;5031931;28;20189;-83
2022/11/09 00:48:02;;;;;;;3.03;1.40;;;15.00;99.90;;;;;;5032256;28;20179;-84
2022/11/09 00:50:28;;;;;;;2.17;1.35;;;15.00;99.90;;;;;;5020604;28;20187;-84
2022/11/09 00:52:54;;;;;;;7.07;1.45;;;15.00;99.90;;;;;;5013486;28;20186;-84
2022/11/09 00:55:20;;;;;;;3.95;1.73;;;15.00;99.90;;;;;;5013628;28;20171;-84
2022/11/09 00:57:49;;;;;;;5.28;1.83;;;15.00;99.90;;;;;;5013759;28;20178;-82
2022/11/09 01:00:22;;;;;;;3.53;1.33;;;15.00;99.90;;;;;;5013587;28;20186;-82
2022/11/09 01:02:49;;;;;;;6.47;1.35;;;15.00;99.90;;;;;;5011948;28;20176;-83
2022/11/09 01:05:15;;;;;;;5.05;2.00;;;14.90;99.90;;;;;;5015803;28;20183;-84
2022/11/09 01:07:41;;;;;;;3.65;1.27;;;14.90;99.90;;;;;;5016750;28;20171;-83
2022/11/09 01:10:07;;;;;;;3.95;1.92;;;14.80;99.90;;;;;;5032223;28;20242;-85
2022/11/09 01:12:33;;;;;;;4.35;1.70;;;14.80;99.90;;;;;;5015396;28;20285;-83
2022/11/09 01:14:59;;;;;;;5.18;1.50;;;14.80;99.90;;;;;;5016811;28;20512;-83
2022/11/09 01:17:25;;;;;;;3.83;1.50;;;14.70;99.90;;;;;;5031793;28;20197;-84
2022/11/09 01:19:50;;;;;;;2.65;1.27;;;14.60;99.90;;;;;;5015474;28;20195;-82
2022/11/09 01:22:20;;;;;;;3.97;1.42;;;14.60;99.90;;;;;;5015435;28;20242;-83
2022/11/09 01:24:46;;;;;;;4.20;1.33;;;14.60;99.90;;;;;;5015462;28;20217;-83
2022/11/09 01:27:12;;;;;;;3.13;1.35;;;14.50;99.90;;;;;;5015304;28;20179;-85
2022/11/09 01:29:38;;;;;;;3.30;1.30;;;14.40;99.90;;;;;;5015385;28;20183;-83
2022/11/09 01:32:04;;;;;;;2.17;1.20;;;14.50;99.90;;;;;;5031751;28;20175;-83
2022/11/09 01:34:30;;;;;;;2.78;1.30;;;14.50;99.90;;;;;;5015085;28;20198;-83
2022/11/09 01:36:55;;;;;;;2.85;1.35;;;14.50;99.90;;;;;;5016178;28;20186;-83
2022/11/09 01:39:21;;;;;;;3.53;1.30;;;14.40;99.90;;;;;;5015200;28;20617;-84
2022/11/09 01:41:48;;;;;;;4.22;1.60;;;14.40;99.90;;;;;;5015018;28;20176;-82
2022/11/09 01:44:17;;;;;;;3.35;1.70;;;14.30;99.90;;;;;;5014808;28;20218;-82
2022/11/09 01:47:01;;;;;;;5.97;1.55;;;14.20;99.90;;;;;;5014688;28;20189;-82
2022/11/09 01:49:51;;;;;;;2.83;1.40;;;14.20;99.90;;;;;;5014663;28;20183;-83
2022/11/09 01:52:25;;;;;;;4.20;1.90;;;14.10;99.90;;;;;;5016022;28;20210;-83
2022/11/09 01:54:57;;;;;;;6.85;1.60;;;14.00;99.90;;;;;;5014820;28;20168;-83
2022/11/09 01:57:33;;;;;;;3.53;1.35;;;14.00;99.90;;;;;;5015797;28;20167;-82
2022/11/09 02:00:08;;;;;;;3.85;1.40;;;13.90;99.90;;;;;;5014723;28;20496;-83
2022/11/09 02:02:36;;;;;;;2.42;1.30;;;13.80;99.90;;;;;;5014293;28;20190;-83
2022/11/09 02:05:09;;;;;;;4.20;1.70;;;13.80;99.90;;;;;;5031153;28;20297;-84
2022/11/09 02:07:37;;;;;;;4.45;1.30;;;13.70;99.90;;;;;;5014573;28;20226;-84
2022/11/09 02:10:09;;;;;;;4.30;1.20;;;13.70;99.90;;;;;;5014325;28;20183;-83
2022/11/09 02:12:35;;;;;;;4.25;1.48;;;13.60;99.90;;;;;;5015620;28;20227;-85
2022/11/09 02:15:06;;;;;;;2.47;1.20;;;13.60;99.90;;;;;;5014339;28;20183;-83
2022/11/09 02:17:31;;;;;;;2.28;1.27;;;13.60;99.90;;;;;;5013974;28;20179;-82
2022/11/09 02:19:57;;;;;;;4.38;1.40;;;13.60;99.90;;;;;;5014364;28;20637;-83
2022/11/09 02:22:23;;;;;;;4.25;1.60;;;13.60;99.90;;;;;;5015579;28;20483;-82
2022/11/09 02:24:49;;;;;;;4.50;1.30;;;13.60;99.90;;;;;;5014432;28;20663;-82
2022/11/09 02:27:15;;;;;;;4.22;1.23;;;13.60;99.90;;;;;;5014210;28;20612;-84
2022/11/09 02:29:43;;;;;;;2.30;1.20;;;13.60;99.90;;;;;;5030781;28;20519;-83
2022/11/09 02:32:15;;;;;;;4.95;1.40;;;13.60;99.90;;;;;;5015078;28;20266;-84
2022/11/09 02:34:41;;;;;;;2.13;1.30;;;13.60;99.90;;;;;;5014007;28;20233;-84
2022/11/09 02:37:07;;;;;;;1.48;1.17;;;13.70;99.90;;;;;;5030355;28;20644;-83
2022/11/09 02:39:34;;;;;;;2.78;1.38;;;13.70;99.90;;;;;;5013881;28;20182;-83
2022/11/09 02:42:08;;;;;;;2.20;1.08;;;13.70;99.90;;;;;;5030542;28;20186;-85
2022/11/09 02:44:39;;;;;;;3.88;1.05;;;13.80;99.90;;;;;;5015387;28;20253;-84
2022/11/09 02:47:05;;;;;;;1.73;1.00;;;13.80;99.90;;;;;;5013668;28;20179;-84
2022/11/09 02:49:30;;;;;;;2.70;1.45;;;13.90;99.90;;;;;;5013846;28;20680;-84
2022/11/09 02:51:56;;;;;;;2.55;1.48;;;13.90;99.90;;;;;;5013773;28;20175;-85
2022/11/09 02:54:22;;;;;;;2.88;1.35;;;14.00;99.90;;;;;;5030424;28;20211;-85
2022/11/09 02:56:47;;;;;;;10.02;1.50;;;14.00;99.90;;;;;;5015068;28;20501;-85
2022/11/09 02:59:13;;;;;;;3.35;1.85;;;14.10;99.90;;;;;;5013884;28;20182;-84
2022/11/09 03:01:39;;;;;;;3.22;1.33;;;14.10;99.90;;;;;;5014697;28;20622;-84
2022/11/09 03:04:05;;;;;;;3.13;1.42;;;14.10;99.90;;;;;;5013554;28;20234;-86
2022/11/09 03:06:33;;;;;;;2.85;1.65;;;14.10;99.90;;;;;;5013589;28;20618;-84
2022/11/09 03:09:05;;;;;;;3.13;1.48;;;14.10;99.90;;;;;;5013738;28;20259;-83
2022/11/09 03:11:31;;;;;;;4.10;1.60;;;14.10;99.90;;;;;;5013721;28;20179;-86
2022/11/09 03:13:56;;;;;;;1.92;1.45;;;14.10;99.90;;;;;;5013149;28;20306;-84
2022/11/09 03:16:22;;;;;;;2.03;1.05;;;14.20;99.90;;;;;;5013592;28;20358;-83
2022/11/09 03:18:48;;;;;;;2.95;1.40;;;14.20;99.90;;;;;;5014706;28;20164;-84
2022/11/09 03:21:14;;;;;;;2.80;1.50;;;14.30;99.90;;;;;;5013361;28;20281;-84
2022/11/09 03:23:39;;;;;;;1.85;1.30;;;14.30;99.90;;;;;;5013323;28;20598;-83
2022/11/09 03:26:05;;;;;;;4.18;1.30;;;14.40;99.90;;;;;;5029361;28;20206;-85
2022/11/09 03:28:31;;;;;;;2.25;1.25;;;14.50;99.90;;;;;;5029652;28;20185;-84
2022/11/09 03:30:57;;;;;;;1.73;1.23;;;14.60;99.90;;;;;;5013274;28;20179;-84
2022/11/09 03:33:22;;;;;;;4.35;1.00;;;14.50;99.90;;;;;;5012791;28;20187;-83
2022/11/09 03:35:48;;;;;;;3.85;1.13;;;14.50;99.90;;;;;;5013093;28;20242;-84
2022/11/09 03:38:14;;;;;;;3.70;1.20;;;14.60;99.90;;;;;;5014559;28;20549;-83
2022/11/09 03:40:39;;;;;;;1.80;1.10;;;14.70;99.90;;;;;;5013201;28;20483;-87
2022/11/09 03:43:05;;;;;;;2.45;1.05;;;14.70;99.90;;;;;;5012912;28;20187;-83
2022/11/09 03:45:31;;;;;;;1.60;1.10;;;14.60;99.90;;;;;;5014322;28;20522;-84
2022/11/09 03:47:59;;;;;;;1.92;1.10;;;14.60;99.90;;;;;;5012569;28;20222;-83
2022/11/09 03:50:30;;;;;;;2.00;1.15;;;14.60;99.90;;;;;;5012879;28;20191;-85
2022/11/09 03:52:57;;;;;;;1.95;0.90;;;14.50;99.90;;;;;;5014066;28;20217;-83
2022/11/09 03:55:23;;;;;;;3.22;1.15;;;14.40;99.90;;;;;;5014083;28;20554;-84
2022/11/09 03:57:49;;;;;;;1.83;1.00;;;14.40;99.90;;;;;;5013034;28;20216;-83
2022/11/09 04:00:17;;;;;;;4.63;1.30;;;14.50;99.90;;;;;;5014043;28;20182;-84
2022/11/09 04:02:43;;;;;;;4.53;1.20;;;14.50;99.90;;;;;;5028901;28;20202;-82
2022/11/09 04:05:09;;;;;;;5.35;1.10;;;14.50;99.90;;;;;;5013797;28;20207;-83
2022/11/09 04:07:35;;;;;;;1.63;0.80;;;14.50;99.90;;;;;;5012707;28;20175;-85
2022/11/09 04:10:00;;;;;;;1.98;1.10;;;14.40;99.90;;;;;;5014056;28;20172;-83
2022/11/09 04:12:26;;;;;;;2.20;0.95;;;14.40;99.90;;;;;;5013702;28;20219;-83
2022/11/09 04:14:52;;;;;;;2.90;1.27;;;14.40;99.90;;;;;;5012903;28;20190;-83
2022/11/09 04:17:17;;;;;;;1.77;0.82;;;14.40;99.90;;;;;;5012332;28;20191;-83
2022/11/09 04:19:43;;;;;;;1.35;1.02;;;14.40;99.90;;;;;;5028998;28;20187;-83
2022/11/09 04:22:09;;;;;;;0.90;0.80;;;14.40;99.90;;;;;;5029058;28;20206;-84
2022/11/09 04:24:34;;;;;;;4.13;0.90;;;14.40;99.90;;;;;;5012660;28;20211;-84
2022/11/09 04:27:00;;;;;;;3.00;0.82;;;14.50;99.90;;;;;;5012413;28;20632;-84
2022/11/09 04:29:26;;;;;;;2.97;1.08;;;14.40;99.90;;;;;;5012666;28;20218;-84
2022/11/09 04:31:51;;;;;;;3.83;1.00;;;14.40;99.90;;;;;;5028653;28;20179;-83
2022/11/09 04:34:17;;;;;;;2.83;0.90;;;14.40;99.90;;;;;;5013721;28;20262;-84
2022/11/09 04:36:43;;;;;;;3.67;0.88;;;14.30;99.90;;;;;;5012438;28;20187;-83
2022/11/09 04:39:09;;;;;;;1.20;0.90;;;14.30;99.90;;;;;;5014884;28;20639;-85
2022/11/09 04:41:35;;;;;;;1.95;1.00;;;14.30;99.90;;;;;;5016248;28;20236;-86
2022/11/09 04:44:01;;;;;;;3.60;1.10;;;14.30;99.90;;;;;;5016248;28;20219;-84
2022/11/09 04:46:27;;;;;;;2.28;1.10;;;14.20;99.90;;;;;;5015803;28;20180;-86
2022/11/09 04:48:52;;;;;;;3.05;1.10;;;14.30;99.90;;;;;;5017419;28;20179;-84
2022/11/09 04:51:18;;;;;;;2.47;0.98;;;14.30;99.90;;;;;;5016024;28;20198;-84
2022/11/09 04:53:44;;;;;;;1.65;0.90;;;14.30;99.90;;;;;;5015925;28;20641;-83
2022/11/09 04:56:11;;;;;;;1.65;1.05;;;14.20;99.90;;;;;;5032409;28;20641;-84
2022/11/09 04:58:37;;;;;;;1.40;0.80;;;14.20;99.90;;;;;;5015891;28;20198;-83
2022/11/09 05:01:20;;;;;;;3.47;0.90;;;14.20;99.90;;;;;;5015716;28;20618;-82
2022/11/09 05:03:46;;;;;;;1.88;0.90;;;14.10;99.90;;;;;;5015768;28;20638;-83
2022/11/09 05:08:56;;;;;;;2.28;0.90;;;14.00;99.90;;;;;;5017077;28;20306;-83
2022/11/09 05:11:23;;;;;;;1.58;0.90;;;13.90;99.90;;;;;;5016848;28;20519;-83
2022/11/09 05:13:50;;;;;;;2.78;1.10;;;13.90;99.90;;;;;;5015352;28;20747;-83
2022/11/09 05:16:19;;;;;;;2.80;1.00;;;13.80;99.90;;;;;;5015696;28;20179;-83
2022/11/09 05:18:48;;;;;;;2.88;1.42;;;13.80;99.90;;;;;;5016799;28;20255;-84
2022/11/09 05:21:14;;;;;;;1.15;0.80;;;13.70;99.90;;;;;;5015410;28;20187;-83
2022/11/09 05:23:58;;;;;;;3.08;1.10;;;13.70;99.90;;;;;;5015381;28;20552;-84
2022/11/09 05:26:38;;;;;;;3.13;1.00;;;13.70;99.90;;;;;;5016521;28;20234;-83
2022/11/09 05:29:06;;;;;;;2.55;0.90;;;13.80;99.90;;;;;;5015519;28;20179;-83
2022/11/09 05:31:33;;;;;;;4.60;1.20;;;13.80;99.90;;;;;;5015320;28;20179;-83
2022/11/09 05:33:59;;;;;;;2.20;1.20;;;13.90;99.90;;;;;;5015262;28;20210;-84
2022/11/09 05:36:26;;;;;;;1.05;0.80;;;13.90;99.90;;;;;;5015328;28;20187;-85
2022/11/09 05:38:52;;;;;;;1.20;0.82;;;13.90;99.90;;;;;;5015509;28;20176;-85
2022/11/09 05:41:18;;;;;;;1.10;0.82;;;14.00;99.90;;;;;;5015630;28;20229;-84
2022/11/09 05:43:45;;;;;;;1.23;0.80;;;14.00;99.90;;;;;;5015368;28;20211;-84
2022/11/09 05:46:12;;;;;;;3.50;1.05;;;14.00;99.90;;;;;;5015158;28;20179;-86
2022/11/09 05:48:39;;;;;;;3.22;1.10;;;14.00;99.90;;;;;;5014824;28;20183;-83
2022/11/09 05:51:07;;;;;;;3.15;0.95;;;14.00;99.90;;;;;;5032045;28;20200;-84
2022/11/09 05:53:33;;;;;;;1.48;0.90;;;14.00;99.90;;;;;;5034777;28;20317;-83
2022/11/09 05:56:09;;;;;;;1.10;0.90;;;14.10;99.90;;;;;;5035020;28;20186;-84
2022/11/09 05:58:37;;;;;;;2.55;1.10;;;14.00;99.90;;;;;;5034983;28;20170;-84
2022/11/09 06:01:12;;;;;;;1.80;0.70;;;14.10;99.90;;;;;;5036174;28;20270;-82
2022/11/09 06:03:39;;;;;;;2.92;1.00;;;14.10;99.90;;;;;;5034711;28;20202;-87
2022/11/09 06:06:06;;;;;;;1.50;1.00;;;14.10;99.90;;;;;;5034865;28;20189;-83
2022/11/09 06:08:32;;;;;;;2.15;0.80;;;14.10;99.90;;;;;;5034671;28;20301;-83
2022/11/09 06:11:00;;;;;;;2.63;0.93;;;14.00;99.90;;;;;;5035944;28;20204;-83
2022/11/09 06:13:27;;;;;;;2.53;1.00;;;14.00;99.90;;;;;;5034276;28;20557;-85
2022/11/09 06:15:58;;;;;;;2.85;0.90;;;14.00;99.90;;;;;;5034287;28;20193;-84
2022/11/09 06:18:25;;;;;;;1.98;1.00;;;14.00;99.90;;;;;;5034437;28;20179;-84
2022/11/09 06:20:56;;;;;;;1.13;0.80;;;13.90;99.90;;;;;;5019403;28;20520;-83
2022/11/09 06:23:24;;;;;;;3.38;1.20;;;13.90;99.90;;;;;;5030876;28;20703;-83
2022/11/09 06:25:56;;;;;;;1.73;0.90;;;13.80;99.90;;;;;;5014654;28;20191;-85
2022/11/09 06:28:22;;;;;;;8.50;1.30;;;13.80;99.90;;;;;;5014522;28;20258;-87
2022/11/09 06:30:48;;;;;;;2.03;1.27;;;13.80;99.90;;;;;;5014526;28;20275;-86
2022/11/09 06:33:14;;;;;;;1.73;1.00;;;13.90;99.90;;;;;;5014233;28;20171;-84
2022/11/09 06:35:40;;;;;;;2.25;0.90;;;13.90;99.90;;;;;;5014459;28;20644;-85
2022/11/09 06:38:05;;;;;;;1.48;1.00;;;13.80;99.90;;;;;;5014301;28;20572;-84
2022/11/09 06:40:32;;;;;;;3.03;0.85;;;13.80;99.90;;;;;;5014303;28;20543;-85
2022/11/09 06:42:59;;;;;;;1.10;0.80;;;13.80;99.90;;;;;;5014412;28;20175;-83
2022/11/09 06:45:26;;;;;;;1.13;0.88;;;13.80;99.90;;;;;;5014117;28;20665;-84
2022/11/09 06:48:00;;;;;;;1.55;0.85;;;13.80;99.90;;;;;;5014009;28;20175;-84
2022/11/09 06:50:28;;;;;;;6.03;1.00;;;13.80;99.90;;;;;;5014346;28;20237;-83
2022/11/09 06:53:02;;;;;;;1.50;0.70;;;13.90;99.90;;;;;;5013814;28;20218;-82
2022/11/09 06:55:29;;;;;;;3.85;1.23;;;13.90;99.90;;;;;;5030394;28;20178;-83
2022/11/09 06:57:55;;;;;;;2.83;1.00;;;13.90;99.90;;;;;;5030346;28;20207;-82
2022/11/09 07:00:22;;;;;;;1.30;0.93;;;13.90;99.90;;;;;;5013880;28;20190;-83
2022/11/09 07:02:49;;;;;;;2.45;0.80;;;13.90;99.90;;;;;;5013217;28;20206;-82
2022/11/09 07:05:15;;;;;;;5.60;1.10;;;13.90;99.90;;;;;;5013539;28;20312;-83
2022/11/09 07:07:41;;;;;;;3.55;1.25;;;13.90;99.90;;;;;;5013618;28;20207;-84
2022/11/09 07:10:07;;;;;;;1.50;0.80;;;13.80;99.90;;;;;;5014994;28;20178;-84
2022/11/09 07:12:34;;;;;;;3.80;1.08;;;13.80;99.90;;;;;;5013557;28;20227;-84
2022/11/09 07:15:00;;;;;;;1.67;1.00;;;13.80;99.90;;;;;;5013687;28;20179;-84
2022/11/09 07:17:28;;;;;;;1.98;1.38;;;13.80;99.90;;;;;;5013351;28;20179;-86
2022/11/09 07:19:54;;;;;;;1.38;0.90;;;13.80;99.90;;;;;;5013743;28;20254;-84
2022/11/09 07:22:19;;;;;;;4.25;1.10;;;13.80;99.90;;;;;;5013453;28;20273;-83
2022/11/09 07:24:45;;;;;;;2.63;1.00;;;13.80;99.90;;;;;;5013464;28;20222;-85
2022/11/09 07:27:11;;;;;;;1.73;1.00;;;13.90;99.90;;;;;;5014847;28;20514;-82
2022/11/09 07:29:36;;;;;;;2.30;1.02;;;13.90;99.90;;;;;;5013554;28;20519;-82
2022/11/09 07:32:02;;;;;;;1.27;0.80;;;13.90;99.90;;;;;;5013169;28;20205;-82
2022/11/09 07:34:28;;;;;;;3.00;0.90;;;14.00;99.90;;;;;;5029668;28;20586;-85
2022/11/09 07:36:54;;;;;;;3.50;1.15;;;14.00;99.90;;;;;;5013520;28;20179;-85
2022/11/09 07:39:20;;;;;;;1.50;1.20;;;14.00;99.90;;;;;;5013554;28;20211;-85
2022/11/09 07:41:49;;;;;;;3.38;1.10;;;14.00;99.90;;;;;;5013355;28;20198;-83
2022/11/09 07:44:17;;;;;;;2.55;1.30;;;14.00;99.90;;;;;;5012948;28;20660;-84
2022/11/09 07:46:47;;;;;;;2.78;1.15;;;14.00;99.90;;;;;;5013178;28;20185;-83
2022/11/09 07:49:14;;;;;;;2.78;1.20;;;14.00;99.90;;;;;;5013339;28;20193;-83
2022/11/09 07:51:41;;;;;;;4.78;1.30;;;14.00;99.90;;;;;;5013307;28;20187;-84
2022/11/09 07:54:07;;;;;;;3.65;1.30;;;14.00;99.90;;;;;;5029602;28;20181;-82
2022/11/09 07:56:33;;;;;;;2.08;1.50;;;14.00;99.90;;;;;;5013309;28;20190;-85
2022/11/09 07:58:59;;;;;;;4.68;1.25;;;14.00;99.90;;;;;;5014283;28;20174;-85
2022/11/09 08:01:25;;;;;;;4.03;1.35;;;14.00;99.90;;;;;;5013186;28;20175;-83
2022/11/09 08:03:52;;;;;;;4.72;1.05;;;14.00;99.90;;;;;;5012619;28;20258;-84
2022/11/09 08:06:18;;;;;;;2.78;1.15;;;14.00;99.90;;;;;;5014168;28;20290;-83
2022/11/09 08:08:45;;;;;;;2.88;1.20;;;14.00;99.90;;;;;;5012987;28;20298;-83
2022/11/09 08:11:10;;;;;;;2.42;1.33;;;14.00;99.90;;;;;;5013359;28;20182;-85
2022/11/09 08:13:36;;;;;;;2.80;1.25;;;14.10;99.90;;;;;;5015953;28;20227;-84
2022/11/09 08:16:02;;;;;;;2.30;1.00;;;14.10;99.90;;;;;;5018141;28;20171;-84
2022/11/09 08:18:28;;;;;;;1.88;1.10;;;14.20;99.90;;;;;;5016767;28;20175;-83
2022/11/09 08:20:53;;;;;;;1.65;0.95;;;14.20;99.90;;;;;;5018208;28;20655;-83
2022/11/09 08:23:20;;;;;;;1.70;0.95;;;14.30;99.90;;;;;;5033446;28;20233;-84
2022/11/09 08:25:50;;;;;;;2.92;1.00;;;14.40;99.90;;;;;;5017088;28;20638;-82
2022/11/09 08:28:15;;;;;;;3.20;1.05;;;14.50;99.90;;;;;;5016842;28;20175;-84
2022/11/09 08:30:42;;;;;;;2.33;0.90;;;14.50;99.90;;;;;;5016757;28;20285;-86
2022/11/09 08:33:08;;;;;;;3.78;1.10;;;14.50;99.90;;;;;;4996737;28;20179;-84
2022/11/09 08:35:34;;;;;;;1.77;1.05;;;14.60;99.90;;;;;;4998293;28;20172;-83
2022/11/09 08:38:03;;;;;;;2.10;1.10;;;14.50;99.90;;;;;;4998373;28;20247;-87
2022/11/09 08:40:30;;;;;;;1.30;0.80;;;14.60;99.90;;;;;;4996650;28;20201;-83
2022/11/09 08:43:01;;;;;;;5.18;1.05;;;14.60;99.90;;;;;;4996855;28;20180;-83
2022/11/09 08:45:27;;;;;;;1.13;0.90;;;14.60;99.90;;;;;;4996977;28;20554;-84
2022/11/09 08:47:58;;;;;;;3.95;1.00;;;14.60;99.90;;;;;;4996548;28;20180;-83
2022/11/09 08:50:24;;;;;;;1.88;0.80;;;14.60;99.90;;;;;;5006889;28;20578;-86
2022/11/09 08:52:49;;;;;;;1.00;0.80;;;14.70;99.90;;;;;;5016193;28;20630;-84
2022/11/09 08:55:15;;;;;;;1.88;0.95;;;14.80;99.90;;;;;;5016164;28;20218;-83
2022/11/09 08:57:41;;;;;;;3.97;0.90;;;14.80;99.90;;;;;;5015908;28;20183;-83
2022/11/09 09:00:07;;;;;;;3.55;1.15;;;14.70;99.90;;;;;;5015911;28;20270;-83
2022/11/09 09:02:33;;;;;;;4.60;1.00;;;14.70;99.90;;;;;;5016975;28;20202;-83
2022/11/09 09:04:59;;;;;;;2.10;0.93;;;14.70;99.90;;;;;;5015152;28;20226;-83
2022/11/09 09:07:24;;;;;;;2.38;0.68;;;14.70;99.90;;;;;;5015568;28;20187;-84
2022/11/09 09:09:50;;;;;;;1.35;0.82;;;14.70;99.90;;;;;;5016343;28;20179;-85
2022/11/09 09:12:17;;;;;;;1.38;0.90;;;14.70;99.90;;;;;;5015769;28;20226;-85
2022/11/09 09:14:43;;;;;;;1.42;0.80;;;14.70;99.90;;;;;;5015906;28;20314;-83
2022/11/09 09:17:09;;;;;;;2.00;0.73;;;14.70;99.90;;;;;;5015671;28;20338;-83
2022/11/09 09:19:35;;;;;;;1.15;0.75;;;14.80;99.90;;;;;;5015797;28;20199;-85
2022/11/09 09:22:01;;;;;;;3.55;0.70;;;14.70;99.90;;;;;;5017185;28;20206;-84
2022/11/09 09:24:27;;;;;;;2.42;0.80;;;14.70;99.90;;;;;;5015003;28;20214;-85
2022/11/09 09:26:53;;;;;;;2.15;0.82;;;14.70;99.90;;;;;;5015731;28;20258;-86
2022/11/09 09:29:18;;;;;;;1.63;0.70;;;14.70;99.90;;;;;;5032286;28;20274;-84
2022/11/09 09:31:44;;;;;;;5.63;0.85;;;14.70;99.90;;;;;;5015814;28;20191;-85
2022/11/09 09:34:11;;;;;;;2.40;0.70;;;14.70;99.90;;;;;;5015450;28;20568;-85
2022/11/09 09:36:37;;;;;;;2.03;0.60;;;14.70;99.90;;;;;;5015658;28;20179;-84
2022/11/09 09:39:03;;;;;;;1.63;0.90;;;14.80;99.90;;;;;;5015117;28;20201;-85
2022/11/09 09:41:53;;;;;;;1.00;0.70;;;14.80;99.90;;;;;;5015523;28;20178;-85
2022/11/09 09:44:25;;;;;;;1.15;0.80;;;14.80;99.90;;;;;;5015585;28;20207;-84
2022/11/09 09:46:58;;;;;;;2.65;0.93;;;14.80;99.90;;;;;;5015093;28;20179;-85
2022/11/09 09:49:28;;;;;;;1.15;0.70;;;14.80;99.90;;;;;;5016337;28;20183;-83
2022/11/09 09:52:22;;;;;;;0.80;0.80;;;14.90;99.90;;;;;;5015514;28;20183;-85
2022/11/09 09:55:26;;;;;;;2.03;0.70;;;14.90;99.90;;;;;;5015309;28;20517;-85
2022/11/09 09:58:03;;;;;;;2.42;0.93;;;14.90;99.90;;;;;;5015239;28;20512;-85
2022/11/09 10:00:32;;;;;;;0.98;0.65;;;15.00;99.90;;;;;;5014849;28;20270;-84
2022/11/09 10:02:58;;;;;;;3.70;0.70;;;15.00;99.90;;;;;;5015889;28;20258;-84
2022/11/09 10:05:36;;;;;;;1.20;0.70;;;15.10;99.90;;;;;;5015100;28;20302;-84
2022/11/09 10:08:13;;;;;;;2.15;0.50;;;15.30;99.90;;;;;;5015232;28;20174;-85
2022/11/09 10:10:59;;;;;;;0.85;0.57;;;15.50;99.90;;;;;;5015217;28;20182;-85
2022/11/09 10:13:30;;;;;;;0.93;0.60;;;15.60;99.90;;;;;;5016757;28;20231;-86
2022/11/09 10:16:20;;;;;;;1.00;0.60;;;15.50;99.90;;;;;;5015132;28;20171;-85
2022/11/09 10:19:20;;;;;;;1.33;0.75;;;15.60;99.90;;;;;;5014243;28;20240;-84
2022/11/09 10:22:18;;;;;;;2.38;0.68;;;15.60;99.90;;;;;;4996026;28;20604;-85
2022/11/09 10:24:50;;;;;;;1.00;0.80;;;15.60;99.90;;;;;;4996157;28;20208;-83
2022/11/09 10:28:07;;;;;;;2.22;0.60;;;15.70;99.90;;;;;;4996030;28;20264;-84
2022/11/09 10:30:33;;;;;;;0.73;0.70;;;15.70;99.90;;;;;;4973027;28;20262;-84
2022/11/09 10:33:08;;;;;;;1.52;0.80;;;15.80;99.90;;;;;;4995532;28;20526;-83
2022/11/09 10:35:36;;;;;;;2.40;0.80;;;15.70;99.90;;;;;;5004774;28;20253;-84
2022/11/09 10:38:01;;;;;;;1.55;0.82;;;15.60;99.90;;;;;;5013959;28;20183;-85
2022/11/09 10:40:56;;;;;;;1.63;0.70;;;15.50;99.90;;;;;;5014334;28;20179;-85
2022/11/09 10:43:23;;;;;;;5.57;1.50;;;15.40;99.90;;;;;;5014259;28;20236;-83
2022/11/09 10:45:58;;;;;;;3.00;0.88;;;15.20;99.90;;;;;;5014124;28;20614;-84
2022/11/09 10:48:36;;;;;;;4.28;0.90;;;14.90;99.90;;;;;;5014244;28;20622;-83
2022/11/09 10:51:02;;;;;;;1.27;0.50;;;14.50;99.90;;;;;;5029659;28;20218;-86
2022/11/09 10:53:31;;;;;;;4.97;0.63;;;14.30;99.90;;;;;;5034366;28;20185;-87
2022/11/09 10:56:17;;;;;;;3.33;0.60;;;14.10;99.90;;;;;;5034414;28;20214;-87
2022/11/09 10:58:52;;;;;;;1.33;0.60;;;13.90;99.90;;;;;;5035262;28;20225;-87
2022/11/09 11:01:34;;;;;;;0.98;0.45;;;13.80;99.90;;;;;;5034023;28;20253;-87
2022/11/09 11:04:23;;;;;;;1.35;0.70;;;13.70;99.90;;;;;;5033616;28;20218;-84
2022/11/09 11:06:48;;;;;;;1.58;0.50;;;13.70;99.90;;;;;;5033795;28;20205;-86
2022/11/09 11:09:19;;;;;;;0.68;0.50;;;13.60;99.90;;;;;;5033890;28;20288;-87
2022/11/09 11:11:45;;;;;;;4.03;0.88;;;13.60;99.90;;;;;;5033723;28;20268;-85
2022/11/09 11:14:22;;;;;;;1.60;0.85;;;13.40;99.90;;;;;;5034007;28;20202;-86
2022/11/09 11:16:49;;;;;;;1.85;0.70;;;13.40;99.90;;;;;;5034007;28;20256;-85
2022/11/09 11:19:44;;;;;;;0.85;0.40;;;13.30;99.90;;;;;;5032724;28;20517;-87
2022/11/09 11:22:10;;;;;;;2.35;0.70;;;13.30;99.90;;;;;;5009480;28;20187;-86
2022/11/09 11:24:58;;;;;;;1.80;0.60;;;13.30;99.90;;;;;;5013800;28;20273;-89
2022/11/09 11:27:36;;;;;;;1.25;0.40;;;13.20;99.90;;;;;;5014388;28;20182;-86
2022/11/09 11:30:30;;;;;;;1.15;0.57;;;13.20;99.90;;;;;;5015145;28;20242;-87
2022/11/09 11:32:57;;;;;;;2.30;0.60;;;13.20;99.90;;;;;;5013477;28;20229;-87
2022/11/09 11:35:48;;;;;;;3.28;0.77;;;13.20;99.90;;;;;;5013864;28;20557;-85
2022/11/09 11:38:36;;;;;;;3.53;0.73;;;13.20;99.90;;;;;;5013749;28;20175;-84
2022/11/09 11:41:30;;;;;;;1.48;0.52;;;13.20;99.90;;;;;;5013570;28;20199;-86
2022/11/09 11:44:12;;;;;;;1.77;0.60;;;13.20;99.90;;;;;;5030027;28;20207;-83
2022/11/09 11:46:50;;;;;;;2.08;0.50;;;13.20;99.90;;;;;;5013607;28;20602;-86
2022/11/09 11:49:43;;;;;;;2.70;0.50;;;13.20;99.90;;;;;;5013971;28;20171;-91
2022/11/09 11:52:34;;;;;;;1.58;0.63;;;13.10;99.90;;;;;;5014044;28;20324;-87
2022/11/09 11:55:18;;;;;;;0.98;0.47;;;13.10;99.90;;;;;;5013857;28;20182;-87
2022/11/09 11:58:16;;;;;;;2.25;0.60;;;13.20;99.90;;;;;;5013346;28;20345;-86
2022/11/09 12:01:11;;;;;;;1.30;0.47;;;13.20;99.90;;;;;;5014907;28;20167;-85
2022/11/09 12:03:48;;;;;;;1.35;0.50;;;13.40;99.90;;;;;;5004252;28;20731;-84
2022/11/09 12:06:42;;;;;;;2.42;0.55;;;13.40;99.90;;;;;;5013409;28;20629;-85
2022/11/09 12:09:36;;;;;;;3.05;0.80;;;13.50;99.90;;;;;;5013249;28;20179;-82
2022/11/09 12:12:33;;;;;;;1.25;0.47;;;13.50;99.90;;;;;;5012597;28;20725;-81
2022/11/09 12:15:05;;;;;;;1.83;0.60;;;13.60;99.90;;;;;;5014340;28;20183;-83
2022/11/09 12:18:13;;;;;;;1.48;0.50;;;13.60;99.90;;;;;;5029370;28;20190;-82
2022/11/09 12:21:25;;;;;;;4.38;0.50;;;13.60;99.90;;;;;;5000826;28;20187;-83
2022/11/09 12:24:22;;;;;;;1.98;0.57;;;13.70;99.90;;;;;;5009664;28;20678;-83
2022/11/09 12:27:11;;;;;;;4.22;0.60;;;13.70;99.90;;;;;;4993114;28;20768;-83
2022/11/09 12:29:56;;;;;;;4.25;0.60;;;13.70;99.90;;;;;;4993348;28;20184;-83
2022/11/09 12:32:35;;;;;;;0.85;0.47;;;13.60;99.90;;;;;;5009616;28;20627;-82
2022/11/09 12:35:24;;;;;;;0.55;0.38;;;13.60;99.90;;;;;;4994281;28;20164;-83
2022/11/09 12:38:19;;;;;;;0.73;0.47;;;13.60;99.90;;;;;;5009501;28;20747;-83
2022/11/09 12:40:57;;;;;;;3.00;0.70;;;13.50;99.90;;;;;;4994076;28;20278;-84
2022/11/09 12:43:44;;;;;;;2.55;0.50;;;13.50;99.90;;;;;;4994308;28;20156;-83
2022/11/09 12:46:12;;;;;;;1.55;0.60;;;13.50;99.90;;;;;;5009734;28;20190;-84
2022/11/09 12:48:39;;;;;;;1.85;0.60;;;13.50;99.90;;;;;;4993068;28;20267;-85
2022/11/09 12:51:07;;;;;;;4.10;0.70;;;13.40;99.90;;;;;;5024483;28;20191;-87
2022/11/09 12:53:34;;;;;;;2.00;0.80;;;13.30;99.90;;;;;;5032842;28;20171;-88
2022/11/09 12:56:00;;;;;;;6.03;0.80;;;13.30;99.90;;;;;;5032778;28;20232;-88
2022/11/09 12:58:32;;;;;;;4.15;0.90;;;13.20;99.90;;;;;;5032918;28;20182;-89
2022/11/09 13:01:05;;;;;;;2.60;0.85;;;13.20;99.90;;;;;;5036667;28;20174;-94
2022/11/09 13:03:39;;;;;;;1.92;0.70;;;13.10;99.90;;;;;;5036708;28;20170;-89
2022/11/09 13:06:18;;;;;;;1.70;0.43;;;13.10;99.90;;;;;;5036321;28;20186;-88
2022/11/09 13:08:56;;;;;;;1.17;0.60;;;13.00;99.90;;;;;;5037565;28;20265;-91
2022/11/09 13:11:40;;;;;;;1.45;0.80;;;13.10;99.90;;;;;;5037428;28;20171;-86